createdAt,value
2017-05-28T00:00:29.855Z,6.44
2017-05-28T00:02:58.292Z,6.30
2017-05-28T00:05:26.597Z,6.58
2017-05-28T00:07:54.945Z,5.30
2017-05-28T00:10:23.249Z,6.50
2017-05-28T00:12:51.558Z,5.78
2017-05-28T00:15:19.900Z,6.34
2017-05-28T00:17:48.207Z,6.62
2017-05-28T00:20:17.278Z,5.92
2017-05-28T00:22:45.635Z,5.52
2017-05-28T00:25:14.710Z,5.84
2017-05-28T00:27:43.038Z,6.10
2017-05-28T00:30:11.421Z,5.88
2017-05-28T00:32:39.729Z,5.54
2017-05-28T00:35:08.035Z,5.72
2017-05-28T00:37:36.378Z,5.62
2017-05-28T00:40:04.682Z,6.02
2017-05-28T00:42:32.992Z,7.50
2017-05-28T00:45:02.125Z,7.00
2017-05-28T00:47:30.434Z,7.04
2017-05-28T00:49:58.738Z,7.12
2017-05-28T00:52:27.107Z,7.02
2017-05-28T00:54:55.425Z,7.68
2017-05-28T00:57:23.735Z,6.60
2017-05-28T00:59:55.113Z,7.46
2017-05-28T01:02:23.417Z,5.90
2017-05-28T01:04:51.735Z,6.24
2017-05-28T01:07:20.136Z,6.20
2017-05-28T01:09:48.454Z,7.58
2017-05-28T01:12:16.807Z,5.90
2017-05-28T01:14:45.143Z,7.92
2017-05-28T01:17:13.465Z,7.50
2017-05-28T01:19:41.801Z,7.20
2017-05-28T01:22:10.135Z,6.58
2017-05-28T01:24:38.450Z,5.76
2017-05-28T01:27:06.790Z,7.30
2017-05-28T01:29:35.094Z,7.72
2017-05-28T01:32:04.176Z,7.04
2017-05-28T01:34:32.528Z,6.24
2017-05-28T01:37:01.621Z,6.50
2017-05-28T01:39:29.934Z,7.24
2017-05-28T01:41:58.314Z,6.18
2017-05-28T01:44:26.617Z,6.46
2017-05-28T01:46:54.925Z,6.96
2017-05-28T01:49:23.292Z,6.80
2017-05-28T01:51:51.598Z,6.48
2017-05-28T01:54:19.905Z,6.46
2017-05-28T01:56:48.253Z,6.16
2017-05-28T01:59:16.565Z,7.96
2017-05-28T02:01:45.632Z,6.90
2017-05-28T02:04:14.330Z,6.02
2017-05-28T02:06:42.837Z,6.26
2017-05-28T02:09:11.152Z,5.92
2017-05-28T02:11:40.258Z,7.06
2017-05-28T02:14:08.616Z,7.32
2017-05-28T02:16:36.922Z,7.60
2017-05-28T02:19:05.228Z,7.48
2017-05-28T02:21:33.588Z,7.52
2017-05-28T02:24:01.900Z,8.58
2017-05-28T02:26:30.209Z,7.94
2017-05-28T02:28:58.559Z,8.26
2017-05-28T02:31:26.868Z,7.44
2017-05-28T02:33:55.175Z,7.98
2017-05-28T02:36:24.303Z,8.10
2017-05-28T02:38:52.607Z,7.34
2017-05-28T02:41:21.696Z,7.10
2017-05-28T02:43:50.048Z,7.36
2017-05-28T02:46:19.118Z,7.82
2017-05-28T02:48:47.435Z,6.62
2017-05-28T02:51:16.902Z,6.78
2017-05-28T02:53:45.237Z,6.76
2017-05-28T02:56:13.539Z,8.02
2017-05-28T02:58:41.898Z,8.36
2017-05-28T03:01:10.226Z,7.78
2017-05-28T03:03:38.527Z,7.12
2017-05-28T03:06:07.648Z,7.40
2017-05-28T03:08:35.948Z,6.80
2017-05-28T03:11:05.018Z,7.32
2017-05-28T03:13:34.144Z,6.48
2017-05-28T03:16:03.219Z,6.92
2017-05-28T03:18:31.522Z,7.88
2017-05-28T03:21:00.080Z,7.78
2017-05-28T03:23:28.429Z,7.32
2017-05-28T03:25:56.736Z,8.14
2017-05-28T03:28:25.088Z,6.82
2017-05-28T03:30:53.395Z,7.24
2017-05-28T03:33:21.703Z,6.38
2017-05-28T03:35:50.054Z,9.08
2017-05-28T03:38:18.364Z,7.84
2017-05-28T03:40:47.437Z,7.12
2017-05-28T03:43:15.806Z,6.74
2017-05-28T03:45:44.108Z,7.90
2017-05-28T03:48:12.448Z,7.20
2017-05-28T03:50:40.748Z,6.62
2017-05-28T03:53:09.051Z,7.02
2017-05-28T03:55:37.407Z,6.50
2017-05-28T03:58:05.775Z,6.48
2017-05-28T04:00:34.075Z,7.34
2017-05-28T04:03:03.232Z,7.00
2017-05-28T04:05:32.307Z,7.00
2017-05-28T04:08:00.616Z,7.96
2017-05-28T04:10:28.974Z,8.32
2017-05-28T04:12:58.102Z,8.60
2017-05-28T04:15:26.637Z,7.22
2017-05-28T04:17:55.025Z,6.94
2017-05-28T04:20:23.337Z,7.32
2017-05-28T04:22:51.657Z,7.04
2017-05-28T04:25:20.009Z,7.46
2017-05-28T04:27:48.316Z,7.12
2017-05-28T04:30:16.633Z,7.60
2017-05-28T04:32:44.994Z,8.34
2017-05-28T04:35:13.297Z,7.16
2017-05-28T04:37:41.625Z,8.00
2017-05-28T04:40:09.992Z,8.72
2017-05-28T04:42:38.303Z,8.06
2017-05-28T04:45:06.613Z,8.40
2017-05-28T04:47:34.965Z,7.94
2017-05-28T04:50:03.285Z,7.98
2017-05-28T04:52:31.600Z,8.98
2017-05-28T04:54:59.953Z,8.58
2017-05-28T04:57:28.254Z,7.52
2017-05-28T04:59:56.578Z,7.26
2017-05-28T05:02:24.954Z,7.60
2017-05-28T05:04:53.261Z,9.26
2017-05-28T05:07:21.567Z,7.84
2017-05-28T05:09:49.906Z,7.98
2017-05-28T05:12:18.214Z,7.88
2017-05-28T05:14:46.525Z,8.80
2017-05-28T05:17:14.872Z,6.86
2017-05-28T05:19:43.181Z,7.96
2017-05-28T05:22:11.491Z,7.16
2017-05-28T05:24:40.607Z,7.10
2017-05-28T05:27:08.913Z,7.66
2017-05-28T05:29:37.226Z,8.06
2017-05-28T05:32:05.597Z,7.50
2017-05-28T05:34:33.910Z,8.16
2017-05-28T05:37:02.221Z,7.20
2017-05-28T05:39:30.573Z,7.50
2017-05-28T05:41:58.912Z,7.94
2017-05-28T05:44:27.991Z,7.64
2017-05-28T05:46:56.354Z,7.26
2017-05-28T05:49:24.654Z,6.32
2017-05-28T05:51:53.007Z,6.42
2017-05-28T05:54:21.449Z,6.62
2017-05-28T05:56:49.761Z,6.08
2017-05-28T05:59:18.092Z,6.18
2017-05-28T06:01:47.210Z,5.34
2017-05-28T06:04:15.566Z,6.80
2017-05-28T06:06:43.867Z,5.68
2017-05-28T06:09:13.450Z,6.28
2017-05-28T06:11:42.557Z,5.62
2017-05-28T06:14:10.997Z,6.22
2017-05-28T06:16:39.326Z,6.62
2017-05-28T06:19:08.393Z,6.28
2017-05-28T06:21:38.263Z,6.46
2017-05-28T06:24:06.569Z,5.46
2017-05-28T06:26:35.682Z,4.82
2017-05-28T06:29:04.795Z,6.57
2017-05-28T06:31:33.105Z,5.82
2017-05-28T06:34:01.408Z,5.50
2017-05-28T06:36:29.757Z,5.26
2017-05-28T06:38:58.058Z,5.84
2017-05-28T06:41:27.202Z,5.62
2017-05-28T06:43:55.545Z,4.96
2017-05-28T06:46:24.633Z,4.70
2017-05-28T06:48:52.953Z,5.00
2017-05-28T06:51:22.093Z,4.92
2017-05-28T06:53:50.394Z,4.50
2017-05-28T06:56:18.705Z,4.78
2017-05-28T06:58:47.095Z,5.10
2017-05-28T07:01:15.409Z,4.64
2017-05-28T07:03:43.721Z,4.82
2017-05-28T07:06:12.089Z,5.06
2017-05-28T07:08:40.394Z,5.10
2017-05-28T07:11:09.538Z,4.54
2017-05-28T07:13:37.992Z,5.48
2017-05-28T07:16:07.121Z,4.84
2017-05-28T07:18:35.446Z,4.48
2017-05-28T07:21:04.599Z,4.72
2017-05-28T07:23:32.906Z,4.80
2017-05-28T07:26:01.220Z,5.20
2017-05-28T07:28:30.342Z,4.48
2017-05-28T07:30:58.680Z,4.60
2017-05-28T07:33:27.094Z,4.46
2017-05-28T07:35:55.525Z,5.04
2017-05-28T07:38:23.834Z,4.54
2017-05-28T07:40:53.319Z,4.98
2017-05-28T07:43:21.772Z,4.88
2017-05-28T07:45:50.098Z,4.14
2017-05-28T07:48:19.182Z,4.68
2017-05-28T07:50:48.282Z,4.80
2017-05-28T07:53:16.577Z,4.98
2017-05-28T07:55:45.038Z,4.82
2017-05-28T07:58:14.113Z,4.32
2017-05-28T08:00:42.437Z,4.60
2017-05-28T08:03:10.784Z,4.62
2017-05-28T08:05:39.095Z,4.36
2017-05-28T08:08:07.439Z,4.94
2017-05-28T08:10:36.523Z,5.00
2017-05-28T08:13:04.837Z,4.12
2017-05-28T08:15:33.189Z,5.36
2017-05-28T08:18:01.497Z,4.12
2017-05-28T08:20:29.810Z,5.14
2017-05-28T08:22:58.163Z,4.96
2017-05-28T08:25:26.480Z,5.46
2017-05-28T08:27:54.798Z,4.76
2017-05-28T08:30:23.928Z,4.78
2017-05-28T08:32:52.233Z,4.12
2017-05-28T08:35:20.577Z,4.24
2017-05-28T08:37:49.709Z,3.98
2017-05-28T08:40:18.778Z,5.06
2017-05-28T08:42:47.085Z,4.44
2017-05-28T08:45:15.434Z,6.24
2017-05-28T08:47:43.740Z,4.20
2017-05-28T08:50:12.053Z,4.42
2017-05-28T08:52:40.420Z,4.10
2017-05-28T08:55:08.792Z,3.82
2017-05-28T08:57:37.078Z,4.28
2017-05-28T09:00:05.429Z,4.22
2017-05-28T09:02:33.734Z,4.40
2017-05-28T09:05:02.110Z,4.06
2017-05-28T09:07:30.458Z,3.80
2017-05-28T09:09:59.673Z,3.74
2017-05-28T09:12:28.007Z,3.50
2017-05-28T09:14:56.382Z,3.80
2017-05-28T09:17:24.702Z,3.50
2017-05-28T09:19:53.040Z,3.64
2017-05-28T09:22:21.408Z,3.22
2017-05-28T09:24:49.711Z,3.52
2017-05-28T09:27:18.010Z,3.60
2017-05-28T09:29:46.364Z,3.32
2017-05-28T09:32:14.681Z,4.02
2017-05-28T09:34:42.993Z,3.10
2017-05-28T09:37:11.346Z,3.66
2017-05-28T09:39:39.649Z,3.68
2017-05-28T09:42:07.948Z,3.40
2017-05-28T09:44:37.064Z,3.90
2017-05-28T09:47:05.371Z,4.16
2017-05-28T09:49:33.673Z,3.64
2017-05-28T09:52:02.041Z,3.34
2017-05-28T09:54:30.349Z,3.90
2017-05-28T09:56:58.649Z,3.20
2017-05-28T09:59:27.010Z,3.32
2017-05-28T10:01:56.097Z,3.16
2017-05-28T10:04:24.405Z,3.56
2017-05-28T10:06:52.757Z,3.56
2017-05-28T10:09:21.062Z,3.32
2017-05-28T10:11:49.379Z,3.00
2017-05-28T10:14:17.739Z,3.58
2017-05-28T10:16:46.045Z,3.38
2017-05-28T10:19:14.350Z,3.50
2017-05-28T10:21:42.701Z,3.60
2017-05-28T10:24:11.773Z,3.42
2017-05-28T10:26:40.085Z,3.10
2017-05-28T10:29:08.437Z,3.16
2017-05-28T10:31:37.513Z,3.12
2017-05-28T10:34:05.830Z,3.10
2017-05-28T10:36:34.163Z,2.98
2017-05-28T10:39:03.134Z,2.68
2017-05-28T10:41:31.827Z,2.80
2017-05-28T10:44:00.905Z,3.08
2017-05-28T10:46:29.211Z,2.80
2017-05-28T10:48:57.690Z,3.24
2017-05-28T10:51:25.995Z,3.48
2017-05-28T10:53:54.306Z,2.82
2017-05-28T10:56:23.430Z,3.34
2017-05-28T10:58:51.736Z,2.96
2017-05-28T11:01:20.042Z,2.62
2017-05-28T11:03:49.163Z,3.32
2017-05-28T11:06:17.470Z,3.04
2017-05-28T11:08:45.778Z,3.00
2017-05-28T11:11:14.145Z,3.22
2017-05-28T11:13:42.457Z,3.04
2017-05-28T11:16:10.768Z,2.78
2017-05-28T11:18:39.118Z,3.06
2017-05-28T11:21:08.202Z,3.06
2017-05-28T11:23:36.501Z,2.80
2017-05-28T11:26:05.621Z,2.80
2017-05-28T11:28:33.931Z,2.50
2017-05-28T11:31:02.235Z,3.12
2017-05-28T11:33:30.622Z,3.02
2017-05-28T11:35:58.930Z,2.30
2017-05-28T11:38:27.260Z,2.78
2017-05-28T11:40:56.457Z,2.98
2017-05-28T11:43:24.766Z,2.44
2017-05-28T11:45:53.074Z,2.84
2017-05-28T11:48:21.415Z,2.22
2017-05-28T11:50:49.727Z,2.68
2017-05-28T11:53:18.066Z,2.96
2017-05-28T11:55:46.395Z,3.10
2017-05-28T11:58:15.507Z,2.30
2017-05-28T12:00:44.661Z,3.14
2017-05-28T12:03:12.977Z,2.70
2017-05-28T12:05:41.277Z,2.88
2017-05-28T12:08:09.625Z,2.82
2017-05-28T12:10:37.929Z,2.44
2017-05-28T12:13:06.272Z,2.30
2017-05-28T12:15:34.626Z,1.92
2017-05-28T12:18:02.930Z,2.28
2017-05-28T12:20:31.239Z,2.46
2017-05-28T12:23:00.349Z,2.86
2017-05-28T12:25:28.660Z,2.34
2017-05-28T12:27:56.979Z,2.32
2017-05-28T12:30:25.342Z,2.04
2017-05-28T12:32:54.569Z,1.98
2017-05-28T12:35:23.753Z,2.38
2017-05-28T12:37:52.110Z,2.00
2017-05-28T12:40:20.414Z,2.60
2017-05-28T12:42:48.717Z,1.80
2017-05-28T12:45:17.071Z,1.98
2017-05-28T12:47:45.387Z,2.30
2017-05-28T12:50:13.694Z,2.92
2017-05-28T12:52:42.049Z,1.94
2017-05-28T12:55:10.365Z,2.04
2017-05-28T12:57:38.737Z,2.10
2017-05-28T13:00:16.451Z,2.58
2017-05-28T13:02:45.330Z,2.02
2017-05-28T13:05:13.635Z,2.12
2017-05-28T13:07:42.716Z,1.94
2017-05-28T13:10:11.142Z,2.00
2017-05-28T13:12:40.211Z,2.20
2017-05-28T13:15:08.522Z,2.16
2017-05-28T13:17:36.866Z,2.46
2017-05-28T13:20:05.170Z,2.28
2017-05-28T13:22:33.473Z,2.32
2017-05-28T13:25:01.835Z,2.82
2017-05-28T13:27:30.146Z,2.00
2017-05-28T13:29:58.461Z,1.62
2017-05-28T13:32:26.823Z,1.70
2017-05-28T13:34:55.136Z,2.38
2017-05-28T13:37:23.445Z,2.14
2017-05-28T13:39:52.577Z,2.16
2017-05-28T13:42:20.893Z,2.20
2017-05-28T13:44:49.193Z,2.10
2017-05-28T13:47:17.534Z,2.02
2017-05-28T13:49:46.241Z,2.12
2017-05-28T13:52:14.546Z,2.18
2017-05-28T13:54:42.851Z,1.74
2017-05-28T13:57:11.190Z,2.52
2017-05-28T13:59:39.509Z,1.92
2017-05-28T14:02:07.819Z,1.64
2017-05-28T14:04:36.166Z,2.66
2017-05-28T14:07:04.849Z,2.30
2017-05-28T14:09:33.153Z,1.80
2017-05-28T14:12:01.647Z,2.46
2017-05-28T14:14:29.951Z,2.60
2017-05-28T14:16:58.263Z,2.20
2017-05-28T14:19:26.605Z,2.86
2017-05-28T14:21:54.914Z,2.42
2017-05-28T14:24:23.994Z,1.86
2017-05-28T14:26:52.342Z,2.18
2017-05-28T14:29:20.651Z,1.96
2017-05-28T14:31:48.963Z,2.70
2017-05-28T14:34:17.306Z,1.98
2017-05-28T14:36:45.615Z,2.30
2017-05-28T14:39:13.917Z,2.20
2017-05-28T14:41:42.296Z,2.22
2017-05-28T14:44:10.605Z,2.28
2017-05-28T14:46:39.775Z,2.36
2017-05-28T14:49:08.922Z,1.66
2017-05-28T14:51:37.230Z,2.10
2017-05-28T14:54:05.533Z,2.10
2017-05-28T14:56:33.875Z,3.50
2017-05-28T14:59:02.951Z,2.58
2017-05-28T15:01:31.254Z,2.04
2017-05-28T15:03:59.607Z,2.16
2017-05-28T15:06:27.910Z,2.38
2017-05-28T15:08:56.225Z,1.78
2017-05-28T15:11:24.575Z,2.00
2017-05-28T15:13:52.881Z,2.92
2017-05-28T15:16:21.191Z,3.90
2017-05-28T15:18:49.554Z,2.20
2017-05-28T15:21:17.857Z,2.40
2017-05-28T15:23:46.186Z,2.18
2017-05-28T15:26:14.538Z,2.36
2017-05-28T15:28:42.875Z,1.86
2017-05-28T15:31:11.179Z,2.16
2017-05-28T15:33:39.533Z,2.32
2017-05-28T15:36:08.605Z,2.08
2017-05-28T15:38:36.924Z,2.04
2017-05-28T15:41:05.266Z,2.26
2017-05-28T15:43:33.691Z,2.30
2017-05-28T15:46:02.004Z,2.12
2017-05-28T15:48:31.123Z,2.42
2017-05-28T15:51:00.198Z,2.06
2017-05-28T15:53:28.506Z,1.92
2017-05-28T15:55:56.874Z,1.86
2017-05-28T15:58:25.223Z,1.70
2017-05-28T16:00:53.531Z,1.96
2017-05-28T16:03:21.871Z,2.78
2017-05-28T16:05:50.989Z,2.10
2017-05-28T16:08:20.071Z,1.88
2017-05-28T16:10:49.170Z,2.10
2017-05-28T16:13:17.499Z,2.12
2017-05-28T16:15:45.815Z,2.32
2017-05-28T16:18:14.202Z,1.94
2017-05-28T16:20:42.554Z,2.22
2017-05-28T16:23:10.853Z,2.28
2017-05-28T16:25:39.161Z,2.10
2017-05-28T16:28:07.524Z,2.42
2017-05-28T16:30:35.828Z,2.04
2017-05-28T16:33:04.136Z,2.32
2017-05-28T16:35:33.248Z,2.62
2017-05-28T16:38:01.566Z,2.04
2017-05-28T16:40:29.864Z,1.82
2017-05-28T16:42:58.236Z,2.52
2017-05-28T16:45:26.552Z,2.50
2017-05-28T16:47:54.862Z,2.08
2017-05-28T16:50:23.980Z,2.64
2017-05-28T16:52:52.302Z,2.50
2017-05-28T16:55:20.611Z,2.30
2017-05-28T16:57:48.953Z,2.58
2017-05-28T17:00:17.263Z,2.22
2017-05-28T17:02:45.565Z,2.12
2017-05-28T17:05:13.919Z,2.80
2017-05-28T17:07:42.232Z,2.52
2017-05-28T17:10:10.539Z,2.32
2017-05-28T17:12:39.691Z,2.22
2017-05-28T17:15:08.501Z,2.22
2017-05-28T17:17:36.801Z,2.94
2017-05-28T17:20:05.921Z,3.28
2017-05-28T17:22:34.230Z,3.68
2017-05-28T17:25:02.534Z,2.76
2017-05-28T17:27:30.961Z,2.80
2017-05-28T17:29:59.270Z,2.38
2017-05-28T17:32:27.581Z,2.70
2017-05-28T17:34:55.952Z,2.22
2017-05-28T17:37:24.261Z,2.02
2017-05-28T17:39:52.567Z,2.80
2017-05-28T17:42:20.917Z,2.22
2017-05-28T17:44:49.224Z,2.56
2017-05-28T17:47:18.303Z,2.64
2017-05-28T17:49:46.638Z,2.58
2017-05-28T17:52:14.945Z,3.12
2017-05-28T17:54:44.011Z,2.68
2017-05-28T17:57:12.351Z,3.38
2017-05-28T17:59:40.712Z,5.08
2017-05-28T18:02:09.013Z,4.08
2017-05-28T18:04:37.322Z,4.18
2017-05-28T18:07:05.669Z,5.16
2017-05-28T18:09:33.975Z,2.88
2017-05-28T18:12:02.277Z,2.82
2017-05-28T18:14:30.621Z,3.24
2017-05-28T18:16:58.930Z,3.18
2017-05-28T18:19:27.235Z,3.00
2017-05-28T18:21:55.583Z,3.38
2017-05-28T18:24:23.889Z,2.98
2017-05-28T18:26:52.973Z,3.98
2017-05-28T18:29:21.323Z,2.96
2017-05-28T18:31:49.630Z,3.58
2017-05-28T18:34:17.945Z,4.10
2017-05-28T18:36:47.068Z,4.30
2017-05-28T18:39:15.387Z,3.98
2017-05-28T18:41:44.514Z,3.48
2017-05-28T18:44:12.895Z,3.96
2017-05-28T18:46:41.203Z,3.98
2017-05-28T18:49:09.519Z,4.08
2017-05-28T18:51:37.859Z,4.02
2017-05-28T18:54:06.169Z,4.00
2017-05-28T18:56:34.469Z,2.58
2017-05-28T18:59:02.822Z,3.72
2017-05-28T19:01:31.128Z,4.08
2017-05-28T19:03:59.440Z,3.52
2017-05-28T19:06:27.782Z,3.86
2017-05-28T19:08:56.095Z,3.28
2017-05-28T19:11:24.401Z,3.88
2017-05-28T19:13:52.769Z,3.20
2017-05-28T19:16:21.073Z,3.92
2017-05-28T19:18:49.392Z,3.68
2017-05-28T19:21:17.745Z,3.38
2017-05-28T19:23:46.070Z,3.08
2017-05-28T19:26:14.382Z,3.50
2017-05-28T19:28:42.731Z,4.80
2017-05-28T19:31:11.042Z,3.40
2017-05-28T19:33:39.353Z,4.38
2017-05-28T19:36:07.711Z,2.96
2017-05-28T19:38:36.823Z,7.04
2017-05-28T19:41:05.967Z,2.80
2017-05-28T19:43:35.046Z,2.60
2017-05-28T19:46:03.348Z,3.00
2017-05-28T19:48:31.697Z,2.70
2017-05-28T19:51:00.771Z,2.80
2017-05-28T19:53:29.077Z,2.58
2017-05-28T19:55:57.434Z,2.60
2017-05-28T19:58:25.743Z,2.56
2017-05-28T20:00:54.043Z,2.06
2017-05-28T20:03:22.402Z,1.76
2017-05-28T20:05:50.794Z,1.44
2017-05-28T20:08:19.865Z,1.86
2017-05-28T20:10:48.979Z,1.80
2017-05-28T20:13:17.292Z,2.00
2017-05-28T20:15:45.604Z,2.36
2017-05-28T20:18:13.949Z,1.94
2017-05-28T20:20:43.264Z,2.78
2017-05-28T20:23:11.566Z,1.88
2017-05-28T20:25:40.021Z,2.46
2017-05-28T20:28:08.340Z,2.34
2017-05-28T20:30:36.653Z,1.96
2017-05-28T20:33:05.034Z,2.68
2017-05-28T20:35:33.334Z,2.50
2017-05-28T20:38:01.641Z,2.18
2017-05-28T20:40:30.001Z,2.52
2017-05-28T20:42:58.309Z,2.72
2017-05-28T20:45:26.613Z,2.86
2017-05-28T20:47:55.015Z,2.80
2017-05-28T20:50:23.322Z,2.62
2017-05-28T20:52:51.667Z,2.54
2017-05-28T20:55:19.975Z,2.24
2017-05-28T20:57:49.041Z,2.72
2017-05-28T21:00:17.438Z,2.52
2017-05-28T21:02:45.738Z,2.66
2017-05-28T21:05:14.085Z,3.36
2017-05-28T21:07:42.451Z,2.50
2017-05-28T21:10:10.761Z,2.78
2017-05-28T21:12:39.080Z,2.78
2017-05-28T21:15:07.429Z,2.76
2017-05-28T21:17:35.733Z,2.40
2017-05-28T21:20:04.039Z,2.22
2017-05-28T21:22:32.400Z,2.24
2017-05-28T21:25:00.707Z,2.80
2017-05-28T21:27:29.008Z,2.70
2017-05-28T21:29:57.350Z,3.70
2017-05-28T21:32:25.649Z,2.94
2017-05-28T21:34:53.958Z,3.04
2017-05-28T21:37:22.300Z,2.86
2017-05-28T21:39:50.837Z,3.86
2017-05-28T21:42:19.164Z,3.72
2017-05-28T21:44:47.539Z,3.48
2017-05-28T21:47:15.842Z,4.16
2017-05-28T21:49:44.170Z,3.42
2017-05-28T21:52:13.289Z,3.78
2017-05-28T21:54:41.599Z,4.30
2017-05-28T21:57:11.416Z,3.56
2017-05-28T21:59:39.719Z,3.94
2017-05-28T22:02:08.786Z,3.64
2017-05-28T22:04:37.146Z,3.58
2017-05-28T22:07:06.900Z,3.54
2017-05-28T22:09:35.243Z,3.10
2017-05-28T22:12:03.615Z,3.30
2017-05-28T22:14:31.923Z,3.58
2017-05-28T22:17:00.225Z,3.56
2017-05-28T22:19:29.339Z,2.98
2017-05-28T22:21:58.424Z,2.66
2017-05-28T22:24:26.723Z,2.48
2017-05-28T22:26:55.069Z,3.72
2017-05-28T22:29:23.379Z,3.42
2017-05-28T22:31:51.725Z,3.42
2017-05-28T22:34:20.091Z,3.84
2017-05-28T22:36:48.407Z,3.06
2017-05-28T22:39:16.734Z,2.34
2017-05-28T22:41:45.083Z,3.12
2017-05-28T22:44:13.386Z,2.74
2017-05-28T22:46:42.458Z,2.56
2017-05-28T22:49:11.317Z,2.60
2017-05-28T22:51:39.631Z,4.18
2017-05-28T22:54:07.933Z,3.30
2017-05-28T22:56:36.298Z,4.00
2017-05-28T22:59:04.605Z,3.54
2017-05-28T23:01:32.978Z,3.22
2017-05-28T23:04:01.408Z,3.38
2017-05-28T23:06:29.708Z,3.20
2017-05-28T23:08:58.005Z,3.24
2017-05-28T23:11:26.351Z,3.64
2017-05-28T23:13:54.654Z,4.04
2017-05-28T23:16:22.963Z,3.54
2017-05-28T23:18:51.306Z,4.28
2017-05-28T23:21:19.615Z,3.94
2017-05-28T23:23:48.695Z,3.18
2017-05-28T23:26:17.811Z,4.08
2017-05-28T23:28:46.115Z,3.90
2017-05-28T23:31:14.434Z,2.80
2017-05-28T23:33:42.881Z,3.06
2017-05-28T23:36:11.185Z,3.10
2017-05-28T23:38:39.485Z,3.70
2017-05-28T23:41:07.825Z,3.18
2017-05-28T23:43:36.126Z,3.80
2017-05-28T23:46:05.209Z,3.34
2017-05-28T23:48:33.555Z,3.08
2017-05-28T23:51:01.854Z,3.36
2017-05-28T23:53:30.161Z,3.04
2017-05-28T23:55:58.506Z,3.66
2017-05-28T23:58:26.805Z,4.10
